Alexandria, Minnesota
Current Conditions -  °F | °C
As of 1:53 AM on Monday 24 Nov 2014 (Local Time) from KAXN Reporting Station
Overcast Overcast  
Wind Chill: -16°   Ceiling: 1100
Heat Index: -7°   Visibility: 10mi
Dew Point: -9°   Wind: 18mph
Humidity: 85%   Direction: 330°NNW
Pressure: 29.43"   Gusts: 26mph
Location:  45.89°N, 95.37°W
Report Text: KAXN 240753Z AUTO 33016G23KT 10SM OVC011 M07/M09 A2943 RMK AO2 PK WND 33026/0720 SLP985 T10721094
Loading
Personal Weather Stations






























Interactive Weather Map New forecast layout! Learn more

10-Day Weather Forecast

Advertisements
Track Severe Weather on mobile